createdAt,value
2022-08-01T00:54:30.332Z,70.80
2022-08-01T00:58:02.526Z,70.60
2022-08-01T01:20:13.747Z,71.03
2022-08-01T02:37:20.649Z,72.61
2022-08-01T02:41:06.794Z,72.58
2022-08-01T02:50:23.329Z,73.03
2022-08-01T02:59:54.433Z,73.05
2022-08-01T03:03:43.615Z,73.22
2022-08-01T03:06:48.703Z,73.30
2022-08-01T03:13:34.358Z,73.55
2022-08-01T03:16:48.794Z,73.62
2022-08-01T03:29:53.463Z,73.69
2022-08-01T03:33:04.966Z,73.77
2022-08-01T03:36:53.649Z,73.87
2022-08-01T03:40:56.996Z,73.83
2022-08-01T03:44:46.641Z,73.78
2022-08-01T03:47:59.522Z,73.77
2022-08-01T03:51:24.439Z,73.85
2022-08-01T03:54:47.122Z,73.82
2022-08-01T03:58:08.276Z,73.85
2022-08-01T04:01:47.878Z,73.89
2022-08-01T04:05:08.289Z,73.76
2022-08-01T04:08:09.843Z,73.77
2022-08-01T04:11:20.196Z,73.91
2022-08-01T04:14:35.032Z,73.84
2022-08-01T04:17:53.040Z,73.93
2022-08-01T04:21:17.305Z,73.75
2022-08-01T04:24:57.192Z,73.71
2022-08-01T04:28:13.118Z,73.73
2022-08-01T04:31:28.235Z,73.85
2022-08-01T04:34:54.452Z,73.74
2022-08-01T04:38:11.691Z,73.89
2022-08-01T04:41:50.774Z,73.88
2022-08-01T04:45:04.356Z,73.75
2022-08-01T04:48:12.585Z,73.48
2022-08-01T04:54:34.363Z,73.49
2022-08-01T04:57:46.134Z,73.30
2022-08-01T05:01:11.448Z,73.40
2022-08-01T05:04:28.947Z,73.34
2022-08-01T05:07:52.111Z,73.44
2022-08-01T05:11:11.157Z,73.28
2022-08-01T05:14:43.778Z,73.30
2022-08-01T05:18:17.281Z,73.41
2022-08-01T05:24:40.182Z,73.42
2022-08-01T05:27:41.809Z,73.09
2022-08-01T05:30:55.040Z,72.98
2022-08-01T05:34:24.294Z,72.96
2022-08-01T05:37:15.453Z,72.77
2022-08-01T05:40:16.662Z,72.89
2022-08-01T05:43:45.967Z,72.83
2022-08-01T05:47:33.303Z,72.74
2022-08-01T05:50:57.983Z,72.80
2022-08-01T05:54:48.080Z,72.99
2022-08-01T05:58:14.160Z,73.20
2022-08-01T06:01:05.901Z,72.47
2022-08-01T06:03:57.711Z,72.19
2022-08-01T06:06:40.941Z,72.01
2022-08-01T06:09:21.457Z,71.96
2022-08-01T06:12:13.692Z,71.58
2022-08-01T06:15:19.649Z,71.83
2022-08-01T06:18:16.549Z,72.10
2022-08-01T06:21:27.600Z,71.95
2022-08-01T06:24:31.238Z,71.54
2022-08-01T06:28:00.565Z,72.09
2022-08-01T06:30:45.333Z,71.76
2022-08-01T06:34:06.406Z,71.42
2022-08-01T06:37:00.400Z,71.86
2022-08-01T06:40:37.226Z,71.66
2022-08-01T06:43:50.646Z,71.41
2022-08-01T06:47:01.948Z,71.55
2022-08-01T06:50:49.509Z,71.30
2022-08-01T06:53:24.891Z,71.35
2022-08-01T06:56:50.715Z,71.47
2022-08-01T06:59:54.133Z,71.67
2022-08-01T07:02:30.350Z,71.48
2022-08-01T07:05:05.584Z,71.60
2022-08-01T07:07:35.488Z,71.61
2022-08-01T07:10:33.990Z,71.38
2022-08-01T07:13:06.454Z,71.08
2022-08-01T07:15:56.668Z,71.12
2022-08-01T07:18:28.594Z,70.92
2022-08-01T07:21:38.950Z,70.65
2022-08-01T07:24:14.145Z,70.31
2022-08-01T07:26:53.617Z,70.10
2022-08-01T07:29:47.602Z,70.06
2022-08-01T07:32:38.673Z,69.97
2022-08-01T07:35:12.125Z,69.59
2022-08-01T07:37:49.137Z,68.07
2022-08-01T07:40:22.365Z,65.36
2022-08-01T07:42:52.996Z,64.74
2022-08-01T07:45:25.106Z,64.49
2022-08-01T07:48:03.965Z,64.24
2022-08-01T07:50:39.338Z,64.07
2022-08-01T07:53:08.299Z,63.45
2022-08-01T07:55:37.282Z,61.60
2022-08-01T07:58:05.252Z,60.43
2022-08-01T08:00:35.907Z,59.30
2022-08-01T08:03:03.697Z,58.10
2022-08-01T08:05:57.666Z,57.46
2022-08-01T08:08:57.074Z,56.04
2022-08-01T08:12:28.347Z,55.34
2022-08-01T08:16:05.354Z,53.86
2022-08-01T08:19:20.655Z,53.60
2022-08-01T08:26:21.066Z,54.00
2022-08-01T08:29:20.257Z,53.61
2022-08-01T08:36:31.698Z,51.56
2022-08-01T08:39:04.326Z,50.91
2022-08-01T08:42:02.855Z,51.79
2022-08-01T08:44:43.819Z,52.58
2022-08-01T08:47:22.209Z,54.34
2022-08-01T08:53:44.858Z,51.57
2022-08-01T08:56:40.224Z,51.07
2022-08-01T08:59:11.539Z,49.75
2022-08-01T09:01:50.297Z,48.60
2022-08-01T09:04:41.893Z,49.64
2022-08-01T09:08:21.622Z,50.95
2022-08-01T09:10:55.041Z,49.56
2022-08-01T09:13:28.088Z,48.53
2022-08-01T09:16:06.493Z,47.90
2022-08-01T09:19:16.038Z,47.89
2022-08-01T09:22:33.749Z,47.96
2022-08-01T09:25:43.726Z,46.08
2022-08-01T09:33:21.993Z,45.81
2022-08-01T09:35:59.153Z,45.68
2022-08-01T09:38:40.988Z,45.04
2022-08-01T09:41:48.648Z,44.47
2022-08-01T09:44:19.388Z,44.99
2022-08-01T09:47:15.615Z,44.13
2022-08-01T09:49:51.684Z,44.36
2022-08-01T09:52:25.847Z,44.88
2022-08-01T09:55:00.976Z,44.42
2022-08-01T09:57:31.455Z,44.17
2022-08-01T10:00:02.280Z,44.60
2022-08-01T10:02:41.461Z,43.93
2022-08-01T10:05:20.778Z,44.30
2022-08-01T10:08:07.790Z,43.45
2022-08-01T10:10:40.997Z,43.86
2022-08-01T10:13:11.784Z,43.86
2022-08-01T10:15:50.396Z,43.26
2022-08-01T10:18:26.123Z,42.87
2022-08-01T10:20:56.407Z,42.09
2022-08-01T10:23:40.631Z,41.83
2022-08-01T10:26:15.796Z,42.58
2022-08-01T10:28:50.079Z,42.43
2022-08-01T10:31:30.908Z,41.20
2022-08-01T10:34:02.026Z,41.83
2022-08-01T10:36:33.532Z,42.09
2022-08-01T10:39:14.540Z,41.82
2022-08-01T10:41:52.864Z,41.23
2022-08-01T10:44:24.977Z,41.48
2022-08-01T10:47:01.315Z,40.77
2022-08-01T10:49:36.070Z,40.59
2022-08-01T10:52:07.717Z,40.53
2022-08-01T10:54:52.461Z,40.78
2022-08-01T10:57:27.514Z,40.69
2022-08-01T11:00:03.317Z,40.28
2022-08-01T11:02:45.473Z,39.10
2022-08-01T11:05:28.452Z,39.49
2022-08-01T11:08:22.614Z,39.97
2022-08-01T11:11:04.444Z,39.67
2022-08-01T11:13:59.215Z,39.78
2022-08-01T11:16:38.871Z,40.18
2022-08-01T11:19:18.005Z,40.02
2022-08-01T11:21:57.551Z,39.66
2022-08-01T11:24:51.032Z,39.11
2022-08-01T11:27:24.137Z,38.91
2022-08-01T11:30:32.773Z,39.27
2022-08-01T11:33:11.648Z,39.04
2022-08-01T11:36:12.948Z,38.76
2022-08-01T11:39:17.488Z,38.95
2022-08-01T11:42:35.086Z,39.35
2022-08-01T11:45:06.033Z,39.13
2022-08-01T11:48:18.442Z,38.63
2022-08-01T11:51:02.046Z,38.20
2022-08-01T11:53:36.758Z,38.21
2022-08-01T11:56:09.622Z,37.96
2022-08-01T11:58:45.267Z,37.26
2022-08-01T12:01:14.596Z,38.04
2022-08-01T12:03:46.012Z,37.98
2022-08-01T12:06:14.549Z,37.80
2022-08-01T12:08:44.711Z,37.32
2022-08-01T12:11:15.263Z,37.08
2022-08-01T12:13:46.080Z,37.19
2022-08-01T12:16:15.801Z,37.64
2022-08-01T12:18:49.237Z,37.51
2022-08-01T12:21:20.177Z,37.31
2022-08-01T12:24:05.537Z,37.58
2022-08-01T12:26:43.430Z,37.84
2022-08-01T12:29:33.415Z,37.65
2022-08-01T12:32:02.858Z,36.93
2022-08-01T12:34:34.697Z,37.12
2022-08-01T12:37:03.972Z,36.91
2022-08-01T12:39:40.292Z,36.52
2022-08-01T12:42:11.283Z,37.28
2022-08-01T12:44:41.062Z,37.39
2022-08-01T12:47:11.855Z,36.54
2022-08-01T12:49:42.950Z,36.68
2022-08-01T12:52:13.381Z,37.16
2022-08-01T12:55:09.851Z,36.83
2022-08-01T12:57:40.357Z,37.05
2022-08-01T13:00:10.628Z,36.78
2022-08-01T13:02:42.544Z,37.09
2022-08-01T13:05:13.082Z,37.28
2022-08-01T13:07:52.541Z,37.55
2022-08-01T13:10:31.503Z,37.37
2022-08-01T13:17:42.944Z,37.44
2022-08-01T13:20:11.226Z,37.55
2022-08-01T13:22:41.271Z,37.15
2022-08-01T13:25:14.585Z,37.51
2022-08-01T13:27:52.123Z,37.42
2022-08-01T13:30:23.681Z,37.43
2022-08-01T13:33:02.346Z,37.32
2022-08-01T13:35:31.241Z,37.15
2022-08-01T13:38:01.395Z,36.96
2022-08-01T13:40:32.389Z,37.50
2022-08-01T13:43:00.041Z,37.38
2022-08-01T13:45:29.061Z,37.54
2022-08-01T13:48:04.220Z,37.68
2022-08-01T13:50:43.275Z,37.47
2022-08-01T13:53:12.620Z,37.60
2022-08-01T13:55:41.441Z,37.75
2022-08-01T13:58:10.705Z,37.52
2022-08-01T14:00:39.991Z,37.44
2022-08-01T14:03:10.684Z,37.59
2022-08-01T14:05:38.966Z,37.83
2022-08-01T14:08:07.831Z,37.42
2022-08-01T14:10:36.483Z,37.45
2022-08-01T14:13:04.244Z,37.69
2022-08-01T14:15:39.791Z,37.79
2022-08-01T14:18:10.623Z,37.66
2022-08-01T14:20:42.972Z,37.70
2022-08-01T14:23:14.030Z,37.94
2022-08-01T14:26:04.184Z,37.98
2022-08-01T14:28:34.767Z,38.28
2022-08-01T14:31:04.210Z,38.05
2022-08-01T14:33:32.596Z,38.16
2022-08-01T14:36:07.703Z,38.22
2022-08-01T14:38:50.377Z,37.92
2022-08-01T14:41:23.079Z,38.19
2022-08-01T14:43:57.333Z,37.96
2022-08-01T14:46:26.061Z,38.02
2022-08-01T14:48:57.551Z,37.90
2022-08-01T14:51:25.884Z,37.77
2022-08-01T14:53:57.953Z,37.99
2022-08-01T14:56:26.006Z,37.92
2022-08-01T14:58:56.032Z,37.90
2022-08-01T15:01:27.063Z,37.94
2022-08-01T15:03:56.604Z,38.02
2022-08-01T15:06:25.495Z,38.01
2022-08-01T15:08:53.663Z,38.42
2022-08-01T15:11:22.631Z,38.31
2022-08-01T15:14:12.258Z,38.22
2022-08-01T15:16:44.248Z,38.55
2022-08-01T15:19:12.068Z,38.35
2022-08-01T15:21:41.894Z,38.25
2022-08-01T15:24:11.209Z,38.20
2022-08-01T15:26:42.132Z,38.46
2022-08-01T15:29:12.815Z,38.34
2022-08-01T15:31:42.760Z,38.75
2022-08-01T15:34:10.422Z,38.72
2022-08-01T15:36:41.975Z,38.65
2022-08-01T15:39:13.548Z,38.45
2022-08-01T15:41:42.001Z,38.46
2022-08-01T15:44:11.043Z,38.27
2022-08-01T15:46:39.544Z,38.46
2022-08-01T15:49:08.486Z,38.47
2022-08-01T15:51:38.343Z,38.36
2022-08-01T15:54:15.932Z,38.49
2022-08-01T15:56:49.301Z,38.59
2022-08-01T15:59:29.174Z,38.07
2022-08-01T16:02:12.683Z,38.41
2022-08-01T16:04:50.951Z,38.44
2022-08-01T16:07:22.931Z,38.38
2022-08-01T16:09:56.831Z,38.61
2022-08-01T16:12:25.973Z,38.47
2022-08-01T16:15:00.497Z,38.71
2022-08-01T16:17:32.798Z,38.78
2022-08-01T16:20:08.485Z,38.65
2022-08-01T16:22:47.940Z,38.40
2022-08-01T16:25:25.669Z,38.66
2022-08-01T16:27:58.125Z,38.79
2022-08-01T16:30:37.387Z,38.61
2022-08-01T16:33:45.592Z,38.73
2022-08-01T16:36:16.906Z,38.66
2022-08-01T16:38:48.347Z,38.82
2022-08-01T16:41:20.353Z,39.19
2022-08-01T16:44:26.725Z,39.21
2022-08-01T16:47:35.654Z,39.02
2022-08-01T16:50:41.553Z,39.16
2022-08-01T16:53:16.345Z,39.20
2022-08-01T16:55:50.488Z,39.47
2022-08-01T16:58:38.255Z,39.31
2022-08-01T17:01:57.942Z,39.28
2022-08-01T17:04:01.509Z,39.47
2022-08-01T17:06:36.716Z,39.42
2022-08-01T17:09:16.785Z,39.40
2022-08-01T17:11:44.615Z,39.46
2022-08-01T17:14:33.888Z,39.60
2022-08-01T17:17:02.503Z,39.78
2022-08-01T17:19:35.061Z,39.98
2022-08-01T17:22:04.494Z,40.11
2022-08-01T17:24:44.954Z,39.95
2022-08-01T17:27:14.491Z,40.00
2022-08-01T17:29:44.664Z,40.14
2022-08-01T17:32:28.166Z,40.10
2022-08-01T17:35:05.646Z,40.46
2022-08-01T17:37:35.189Z,40.44
2022-08-01T17:40:14.034Z,40.57
2022-08-01T17:43:21.798Z,40.76
2022-08-01T17:45:52.937Z,40.95
2022-08-01T17:48:25.520Z,41.04
2022-08-01T17:51:13.788Z,41.14
2022-08-01T17:56:59.331Z,41.45
2022-08-01T18:00:47.932Z,41.61
2022-08-01T19:53:24.147Z,48.01
2022-08-01T19:56:49.758Z,48.13
2022-08-01T20:50:52.345Z,50.07
2022-08-01T21:13:21.359Z,51.10
2022-08-01T21:20:38.126Z,51.48
2022-08-01T21:24:12.831Z,51.46
2022-08-01T22:21:41.306Z,54.21
2022-08-01T22:24:13.147Z,54.36
2022-08-01T22:30:30.908Z,54.58
2022-08-01T22:36:04.658Z,54.69
2022-08-01T22:38:34.806Z,54.61
2022-08-01T22:42:17.518Z,54.54
2022-08-01T22:45:06.024Z,54.75
2022-08-01T22:48:26.300Z,54.83
2022-08-01T22:52:11.717Z,54.78
2022-08-01T22:55:57.879Z,55.07
2022-08-01T22:59:19.682Z,55.27
2022-08-01T23:03:07.594Z,55.52
2022-08-01T23:06:20.412Z,55.74
2022-08-01T23:08:56.793Z,55.88
2022-08-01T23:12:36.265Z,56.15
2022-08-01T23:15:31.875Z,56.20
2022-08-01T23:18:06.486Z,56.15
2022-08-01T23:20:39.236Z,56.11
2022-08-01T23:23:17.958Z,56.29
2022-08-01T23:40:33.147Z,56.71
2022-08-01T23:50:50.631Z,57.34
2022-08-01T23:54:55.639Z,57.26
2022-08-01T23:58:51.456Z,57.38
